Terminal Aerodrome Forecast
Issued by NWS Melbourne, FL

Home | Current Version | Previous Version | Text Only | Print | Product List | Glossary On
Versions: 1 2 3 4 5 6 7 8
570
FTUS42 KMLB 242324
TAFDAB
TAF
KDAB 242324Z 2500/2524 29016G22KT P6SM BKN060
     FM250100 26013KT P6SM SCT060
     FM250600 28006KT P6SM FEW060
     FM251400 28012G18KT P6SM FEW060=

USA.gov is the U.S. government's official web portal to all federal, state and local government web resources and services.